Kerr, Arkansas
Current Conditions -  °F | °C
As of 7:24 PM on Monday 22 Dec 2014 (Local Time) from KLIT Reporting Station
Overcast Overcast  
Wind Chill: 55°   Ceiling: 1700
Heat Index: 55°   Visibility: 7mi
Dew Point: 52°   Wind: 6mph
Humidity: 88%   Direction: 250°WSW
Pressure: 29.63"   Gusts: NA
Location:  34.7054°N, 92.1029°W
Report Text: KLIT 230124Z 25005KT 7SM BKN017 OVC023 13/11 A2963 RMK AO2
Loading
Personal Weather Stations






























Interactive Weather Map New forecast layout! Learn more

10-Day Weather Forecast

Advertisements
Track Severe Weather on mobile